Main page
METAR-TAF:

METAR-TAF

Airports :

Isle of Man Airport

Isle of Man,

latitude: 54-05N, longitude: 004-38W, elevation: 17 m

Current weather observation

The report was made 27 minutes ago, at 08:50 UTC
Wind 7 kt from the East/Northeast
Temperature 10°C
Humidity 93%
Pressure 1032 hPa
Visibility 10 km or more
Few clouds at a height of 900 ft

METAR: EGNS 210850Z 07007KT 9999 FEW009 10/09 Q1032 NOSIG

Time: 10:17 (09:17 UTC)

Forecast

The report was made 1 hour and 17 minutes ago, at 08:00 UTC
Forecast valid from 21 at 09 UTC to 21 at 18 UTC
Wind 5 kt from variable directions
Visibility 10 km or more
Few clouds at a height of 1000 ft

TAF: EGNS 210800Z 2109/2118 VRB05KT 9999 FEW010

Weather observations and forecasts of more than 4000 airports (METAR and TAF reports).

The available stations are represented by yellow and red dots on the map.

Hover mouse over dot to see the name of the station.

Then click to see weather observations and forecasts.

To change the map : click on the green buttons with a black cross to zoom in, on the green button with a dash to zoom out, or on the green arrows for adjacent maps.


METAR-TAF: